sensor_id;sensor_type;location;lat;lon;timestamp;P1;durP1;ratioP1;P2;durP2;ratioP2
22851;SDS011;11592;45.460;9.240;2022-08-03T00:01:26;5.05;;;2.58;;
22851;SDS011;11592;45.460;9.240;2022-08-03T00:03:53;9.60;;;2.78;;
22851;SDS011;11592;45.460;9.240;2022-08-03T00:06:20;4.55;;;2.55;;
22851;SDS011;11592;45.460;9.240;2022-08-03T00:08:47;6.72;;;2.88;;
22851;SDS011;11592;45.460;9.240;2022-08-03T00:11:14;5.35;;;2.50;;
22851;SDS011;11592;45.460;9.240;2022-08-03T00:13:40;3.40;;;2.28;;
22851;SDS011;11592;45.460;9.240;2022-08-03T00:16:07;5.32;;;2.58;;
22851;SDS011;11592;45.460;9.240;2022-08-03T00:18:36;7.22;;;2.50;;
22851;SDS011;11592;45.460;9.240;2022-08-03T00:21:03;6.18;;;2.63;;
22851;SDS011;11592;45.460;9.240;2022-08-03T00:23:30;6.32;;;2.45;;
22851;SDS011;11592;45.460;9.240;2022-08-03T00:26:17;5.32;;;2.45;;
22851;SDS011;11592;45.460;9.240;2022-08-03T00:28:44;3.28;;;2.20;;
22851;SDS011;11592;45.460;9.240;2022-08-03T00:31:10;4.45;;;2.28;;
22851;SDS011;11592;45.460;9.240;2022-08-03T00:33:39;3.58;;;2.50;;
22851;SDS011;11592;45.460;9.240;2022-08-03T00:36:24;6.20;;;2.33;;
22851;SDS011;11592;45.460;9.240;2022-08-03T00:38:52;3.30;;;2.42;;
22851;SDS011;11592;45.460;9.240;2022-08-03T00:41:19;7.95;;;2.92;;
22851;SDS011;11592;45.460;9.240;2022-08-03T00:43:45;4.15;;;1.90;;
22851;SDS011;11592;45.460;9.240;2022-08-03T00:46:12;5.68;;;2.53;;
22851;SDS011;11592;45.460;9.240;2022-08-03T00:48:46;3.92;;;2.25;;
22851;SDS011;11592;45.460;9.240;2022-08-03T00:51:17;6.32;;;2.50;;
22851;SDS011;11592;45.460;9.240;2022-08-03T00:53:45;2.95;;;2.03;;
22851;SDS011;11592;45.460;9.240;2022-08-03T00:56:12;4.85;;;1.98;;
22851;SDS011;11592;45.460;9.240;2022-08-03T00:58:40;4.82;;;2.40;;
22851;SDS011;11592;45.460;9.240;2022-08-03T01:01:09;16.10;;;3.47;;
22851;SDS011;11592;45.460;9.240;2022-08-03T01:03:37;16.25;;;3.00;;
22851;SDS011;11592;45.460;9.240;2022-08-03T01:06:06;12.80;;;3.83;;
22851;SDS011;11592;45.460;9.240;2022-08-03T01:11:30;8.65;;;3.20;;
22851;SDS011;11592;45.460;9.240;2022-08-03T01:14:23;8.05;;;3.10;;
22851;SDS011;11592;45.460;9.240;2022-08-03T01:17:01;10.23;;;3.10;;
22851;SDS011;11592;45.460;9.240;2022-08-03T01:30:44;6.53;;;2.53;;
22851;SDS011;11592;45.460;9.240;2022-08-03T01:33:16;7.93;;;2.60;;
22851;SDS011;11592;45.460;9.240;2022-08-03T01:35:54;9.27;;;3.45;;
22851;SDS011;11592;45.460;9.240;2022-08-03T01:40:55;11.15;;;3.03;;
22851;SDS011;11592;45.460;9.240;2022-08-03T01:43:24;9.13;;;2.40;;
22851;SDS011;11592;45.460;9.240;2022-08-03T01:46:16;8.40;;;2.67;;
22851;SDS011;11592;45.460;9.240;2022-08-03T01:48:46;5.55;;;2.60;;
22851;SDS011;11592;45.460;9.240;2022-08-03T01:51:14;3.88;;;2.00;;
22851;SDS011;11592;45.460;9.240;2022-08-03T01:53:43;5.63;;;2.55;;
22851;SDS011;11592;45.460;9.240;2022-08-03T01:56:11;6.80;;;2.40;;
22851;SDS011;11592;45.460;9.240;2022-08-03T01:58:39;5.00;;;2.65;;
22851;SDS011;11592;45.460;9.240;2022-08-03T02:01:06;4.97;;;2.58;;
22851;SDS011;11592;45.460;9.240;2022-08-03T02:03:35;4.53;;;2.40;;
22851;SDS011;11592;45.460;9.240;2022-08-03T02:06:25;4.25;;;2.30;;
22851;SDS011;11592;45.460;9.240;2022-08-03T02:09:14;5.18;;;2.20;;
22851;SDS011;11592;45.460;9.240;2022-08-03T02:11:45;5.18;;;2.10;;
22851;SDS011;11592;45.460;9.240;2022-08-03T02:14:12;3.72;;;2.33;;
22851;SDS011;11592;45.460;9.240;2022-08-03T02:16:41;4.78;;;2.22;;
22851;SDS011;11592;45.460;9.240;2022-08-03T02:19:09;4.90;;;2.22;;
22851;SDS011;11592;45.460;9.240;2022-08-03T02:21:37;3.75;;;2.50;;
22851;SDS011;11592;45.460;9.240;2022-08-03T02:24:24;3.72;;;2.20;;
22851;SDS011;11592;45.460;9.240;2022-08-03T02:26:55;4.38;;;2.45;;
22851;SDS011;11592;45.460;9.240;2022-08-03T02:29:27;3.25;;;2.30;;
22851;SDS011;11592;45.460;9.240;2022-08-03T02:32:06;3.35;;;2.40;;
22851;SDS011;11592;45.460;9.240;2022-08-03T02:34:37;4.53;;;2.10;;
22851;SDS011;11592;45.460;9.240;2022-08-03T02:37:06;4.10;;;2.13;;
22851;SDS011;11592;45.460;9.240;2022-08-03T02:39:35;5.80;;;2.47;;
22851;SDS011;11592;45.460;9.240;2022-08-03T02:42:03;4.07;;;2.58;;
22851;SDS011;11592;45.460;9.240;2022-08-03T02:44:32;4.82;;;2.40;;
22851;SDS011;11592;45.460;9.240;2022-08-03T02:47:02;4.70;;;2.55;;
22851;SDS011;11592;45.460;9.240;2022-08-03T02:49:33;4.82;;;2.50;;
22851;SDS011;11592;45.460;9.240;2022-08-03T02:52:17;3.35;;;2.33;;
22851;SDS011;11592;45.460;9.240;2022-08-03T02:54:49;7.18;;;2.72;;
22851;SDS011;11592;45.460;9.240;2022-08-03T02:57:20;4.95;;;2.42;;
22851;SDS011;11592;45.460;9.240;2022-08-03T02:59:48;4.35;;;2.47;;
22851;SDS011;11592;45.460;9.240;2022-08-03T03:02:16;7.03;;;2.63;;
22851;SDS011;11592;45.460;9.240;2022-08-03T03:04:44;5.68;;;2.60;;
22851;SDS011;11592;45.460;9.240;2022-08-03T03:07:32;3.88;;;2.28;;
22851;SDS011;11592;45.460;9.240;2022-08-03T03:10:18;3.83;;;2.72;;
22851;SDS011;11592;45.460;9.240;2022-08-03T03:12:47;4.43;;;2.50;;
22851;SDS011;11592;45.460;9.240;2022-08-03T03:15:17;6.05;;;2.55;;
22851;SDS011;11592;45.460;9.240;2022-08-03T03:17:44;7.03;;;2.40;;
22851;SDS011;11592;45.460;9.240;2022-08-03T03:20:13;5.20;;;2.80;;
22851;SDS011;11592;45.460;9.240;2022-08-03T03:22:55;4.70;;;2.60;;
22851;SDS011;11592;45.460;9.240;2022-08-03T03:25:24;5.20;;;2.58;;
22851;SDS011;11592;45.460;9.240;2022-08-03T03:27:51;7.22;;;2.78;;
22851;SDS011;11592;45.460;9.240;2022-08-03T03:30:18;5.28;;;2.60;;
22851;SDS011;11592;45.460;9.240;2022-08-03T03:32:45;7.28;;;3.20;;
22851;SDS011;11592;45.460;9.240;2022-08-03T03:35:12;6.57;;;3.22;;
22851;SDS011;11592;45.460;9.240;2022-08-03T03:37:40;5.75;;;2.55;;
22851;SDS011;11592;45.460;9.240;2022-08-03T03:40:07;5.78;;;2.70;;
22851;SDS011;11592;45.460;9.240;2022-08-03T03:42:34;4.75;;;2.97;;
22851;SDS011;11592;45.460;9.240;2022-08-03T03:45:04;5.47;;;2.80;;
22851;SDS011;11592;45.460;9.240;2022-08-03T03:47:32;8.93;;;2.92;;
22851;SDS011;11592;45.460;9.240;2022-08-03T03:50:01;3.97;;;2.47;;
22851;SDS011;11592;45.460;9.240;2022-08-03T03:52:30;6.07;;;2.47;;
22851;SDS011;11592;45.460;9.240;2022-08-03T03:54:57;4.45;;;3.05;;
22851;SDS011;11592;45.460;9.240;2022-08-03T03:57:26;4.88;;;2.38;;
22851;SDS011;11592;45.460;9.240;2022-08-03T03:59:53;3.15;;;2.40;;
22851;SDS011;11592;45.460;9.240;2022-08-03T04:02:20;3.88;;;2.63;;
22851;SDS011;11592;45.460;9.240;2022-08-03T04:04:47;5.70;;;2.63;;
22851;SDS011;11592;45.460;9.240;2022-08-03T04:07:37;3.40;;;2.15;;
22851;SDS011;11592;45.460;9.240;2022-08-03T04:10:41;2.88;;;2.03;;
22851;SDS011;11592;45.460;9.240;2022-08-03T04:13:24;5.38;;;2.70;;
22851;SDS011;11592;45.460;9.240;2022-08-03T04:15:56;5.03;;;2.67;;
22851;SDS011;11592;45.460;9.240;2022-08-03T04:18:24;3.15;;;2.55;;
22851;SDS011;11592;45.460;9.240;2022-08-03T04:20:55;6.07;;;2.30;;
22851;SDS011;11592;45.460;9.240;2022-08-03T04:23:24;6.35;;;2.50;;
22851;SDS011;11592;45.460;9.240;2022-08-03T04:25:54;3.60;;;2.60;;
22851;SDS011;11592;45.460;9.240;2022-08-03T04:28:22;3.50;;;2.53;;
22851;SDS011;11592;45.460;9.240;2022-08-03T04:30:56;5.38;;;2.80;;
22851;SDS011;11592;45.460;9.240;2022-08-03T04:33:25;3.17;;;2.50;;
22851;SDS011;11592;45.460;9.240;2022-08-03T04:35:54;5.00;;;2.83;;
22851;SDS011;11592;45.460;9.240;2022-08-03T04:38:28;4.35;;;2.63;;
22851;SDS011;11592;45.460;9.240;2022-08-03T04:41:02;4.78;;;3.05;;
22851;SDS011;11592;45.460;9.240;2022-08-03T04:43:29;5.57;;;3.22;;
22851;SDS011;11592;45.460;9.240;2022-08-03T04:45:59;7.97;;;2.70;;
22851;SDS011;11592;45.460;9.240;2022-08-03T04:48:27;5.28;;;2.95;;
22851;SDS011;11592;45.460;9.240;2022-08-03T04:50:54;7.68;;;3.13;;
22851;SDS011;11592;45.460;9.240;2022-08-03T04:53:22;7.50;;;3.20;;
22851;SDS011;11592;45.460;9.240;2022-08-03T04:55:48;6.43;;;2.88;;
22851;SDS011;11592;45.460;9.240;2022-08-03T04:58:15;7.35;;;2.97;;
22851;SDS011;11592;45.460;9.240;2022-08-03T05:00:42;9.20;;;3.33;;
22851;SDS011;11592;45.460;9.240;2022-08-03T05:03:10;8.25;;;2.97;;
22851;SDS011;11592;45.460;9.240;2022-08-03T05:05:50;6.80;;;3.28;;
22851;SDS011;11592;45.460;9.240;2022-08-03T05:11:12;4.57;;;2.80;;
22851;SDS011;11592;45.460;9.240;2022-08-03T05:13:43;6.22;;;3.20;;
22851;SDS011;11592;45.460;9.240;2022-08-03T05:16:10;7.00;;;3.17;;
22851;SDS011;11592;45.460;9.240;2022-08-03T05:18:39;6.68;;;3.20;;
22851;SDS011;11592;45.460;9.240;2022-08-03T05:21:07;7.20;;;3.00;;
22851;SDS011;11592;45.460;9.240;2022-08-03T05:23:35;7.38;;;3.00;;
22851;SDS011;11592;45.460;9.240;2022-08-03T05:26:02;6.20;;;2.90;;
22851;SDS011;11592;45.460;9.240;2022-08-03T05:28:29;8.90;;;3.15;;
22851;SDS011;11592;45.460;9.240;2022-08-03T05:30:56;8.45;;;3.00;;
22851;SDS011;11592;45.460;9.240;2022-08-03T05:33:23;6.22;;;2.97;;
22851;SDS011;11592;45.460;9.240;2022-08-03T05:35:50;7.97;;;3.30;;
22851;SDS011;11592;45.460;9.240;2022-08-03T05:38:29;4.38;;;2.90;;
22851;SDS011;11592;45.460;9.240;2022-08-03T05:41:00;4.35;;;2.85;;
22851;SDS011;11592;45.460;9.240;2022-08-03T05:43:49;5.05;;;2.95;;
22851;SDS011;11592;45.460;9.240;2022-08-03T05:46:20;5.82;;;3.10;;
22851;SDS011;11592;45.460;9.240;2022-08-03T05:48:48;6.63;;;2.95;;
22851;SDS011;11592;45.460;9.240;2022-08-03T05:51:15;5.00;;;2.90;;
22851;SDS011;11592;45.460;9.240;2022-08-03T05:53:42;9.95;;;2.85;;
22851;SDS011;11592;45.460;9.240;2022-08-03T05:56:09;8.38;;;3.25;;
22851;SDS011;11592;45.460;9.240;2022-08-03T05:58:41;7.40;;;2.78;;
22851;SDS011;11592;45.460;9.240;2022-08-03T06:01:09;6.93;;;3.10;;
22851;SDS011;11592;45.460;9.240;2022-08-03T06:03:36;7.72;;;2.97;;
22851;SDS011;11592;45.460;9.240;2022-08-03T06:06:03;4.93;;;2.50;;
22851;SDS011;11592;45.460;9.240;2022-08-03T06:08:29;9.93;;;2.90;;
22851;SDS011;11592;45.460;9.240;2022-08-03T06:10:56;6.35;;;2.42;;
22851;SDS011;11592;45.460;9.240;2022-08-03T06:13:23;8.02;;;3.10;;
22851;SDS011;11592;45.460;9.240;2022-08-03T06:15:50;9.50;;;2.90;;
22851;SDS011;11592;45.460;9.240;2022-08-03T06:18:16;6.50;;;3.00;;
22851;SDS011;11592;45.460;9.240;2022-08-03T06:20:43;3.88;;;2.38;;
22851;SDS011;11592;45.460;9.240;2022-08-03T06:23:12;5.13;;;2.40;;
22851;SDS011;11592;45.460;9.240;2022-08-03T06:25:43;5.63;;;2.45;;
22851;SDS011;11592;45.460;9.240;2022-08-03T06:28:10;3.70;;;2.70;;
22851;SDS011;11592;45.460;9.240;2022-08-03T06:30:59;6.53;;;2.47;;
22851;SDS011;11592;45.460;9.240;2022-08-03T06:33:26;8.60;;;2.53;;
22851;SDS011;11592;45.460;9.240;2022-08-03T06:36:13;3.47;;;2.20;;
22851;SDS011;11592;45.460;9.240;2022-08-03T06:38:40;3.67;;;2.20;;
22851;SDS011;11592;45.460;9.240;2022-08-03T06:41:07;10.15;;;2.45;;
22851;SDS011;11592;45.460;9.240;2022-08-03T06:43:34;7.00;;;2.53;;
22851;SDS011;11592;45.460;9.240;2022-08-03T06:46:03;6.88;;;2.00;;
22851;SDS011;11592;45.460;9.240;2022-08-03T06:48:31;4.82;;;2.38;;
22851;SDS011;11592;45.460;9.240;2022-08-03T06:50:57;3.47;;;1.83;;
22851;SDS011;11592;45.460;9.240;2022-08-03T06:53:24;3.22;;;2.40;;
22851;SDS011;11592;45.460;9.240;2022-08-03T06:55:51;3.20;;;2.08;;
22851;SDS011;11592;45.460;9.240;2022-08-03T06:58:20;14.18;;;2.60;;
22851;SDS011;11592;45.460;9.240;2022-08-03T07:00:47;3.17;;;1.83;;
22851;SDS011;11592;45.460;9.240;2022-08-03T07:03:14;6.55;;;2.25;;
22851;SDS011;11592;45.460;9.240;2022-08-03T07:05:41;4.78;;;1.95;;
22851;SDS011;11592;45.460;9.240;2022-08-03T07:08:09;2.22;;;1.60;;
22851;SDS011;11592;45.460;9.240;2022-08-03T07:10:35;3.35;;;1.90;;
22851;SDS011;11592;45.460;9.240;2022-08-03T07:13:03;2.78;;;1.90;;
22851;SDS011;11592;45.460;9.240;2022-08-03T07:15:30;2.65;;;2.00;;
22851;SDS011;11592;45.460;9.240;2022-08-03T07:18:17;4.63;;;2.85;;
22851;SDS011;11592;45.460;9.240;2022-08-03T07:20:55;6.40;;;2.17;;
22851;SDS011;11592;45.460;9.240;2022-08-03T07:23:22;2.78;;;1.88;;
22851;SDS011;11592;45.460;9.240;2022-08-03T07:25:50;6.32;;;2.03;;
22851;SDS011;11592;45.460;9.240;2022-08-03T07:28:17;7.43;;;1.98;;
22851;SDS011;11592;45.460;9.240;2022-08-03T07:30:44;4.68;;;1.88;;
22851;SDS011;11592;45.460;9.240;2022-08-03T07:33:12;3.53;;;2.20;;
22851;SDS011;11592;45.460;9.240;2022-08-03T07:35:40;3.55;;;2.08;;
22851;SDS011;11592;45.460;9.240;2022-08-03T07:38:07;5.78;;;2.45;;
22851;SDS011;11592;45.460;9.240;2022-08-03T07:40:34;6.22;;;2.20;;
22851;SDS011;11592;45.460;9.240;2022-08-03T07:43:00;5.03;;;2.20;;
22851;SDS011;11592;45.460;9.240;2022-08-03T07:45:29;5.72;;;2.42;;
22851;SDS011;11592;45.460;9.240;2022-08-03T07:47:56;3.03;;;1.90;;
22851;SDS011;11592;45.460;9.240;2022-08-03T07:50:23;6.10;;;1.90;;
22851;SDS011;11592;45.460;9.240;2022-08-03T07:52:50;5.07;;;2.10;;
22851;SDS011;11592;45.460;9.240;2022-08-03T07:55:19;4.97;;;1.88;;
22851;SDS011;11592;45.460;9.240;2022-08-03T07:58:00;2.88;;;1.75;;
22851;SDS011;11592;45.460;9.240;2022-08-03T08:00:29;3.28;;;1.80;;
22851;SDS011;11592;45.460;9.240;2022-08-03T08:02:56;2.42;;;1.60;;
22851;SDS011;11592;45.460;9.240;2022-08-03T08:05:23;3.30;;;1.60;;
22851;SDS011;11592;45.460;9.240;2022-08-03T08:07:49;3.15;;;1.70;;
22851;SDS011;11592;45.460;9.240;2022-08-03T08:10:17;4.57;;;1.80;;
22851;SDS011;11592;45.460;9.240;2022-08-03T08:12:44;2.50;;;1.73;;
22851;SDS011;11592;45.460;9.240;2022-08-03T08:15:11;4.63;;;1.75;;
22851;SDS011;11592;45.460;9.240;2022-08-03T08:17:51;2.50;;;1.58;;
22851;SDS011;11592;45.460;9.240;2022-08-03T08:20:20;1.23;;;1.13;;
22851;SDS011;11592;45.460;9.240;2022-08-03T08:22:54;2.47;;;1.65;;
22851;SDS011;11592;45.460;9.240;2022-08-03T08:25:27;5.22;;;1.70;;
22851;SDS011;11592;45.460;9.240;2022-08-03T08:27:56;3.28;;;1.60;;
22851;SDS011;11592;45.460;9.240;2022-08-03T08:30:43;3.92;;;1.60;;
22851;SDS011;11592;45.460;9.240;2022-08-03T08:33:10;3.30;;;1.80;;
22851;SDS011;11592;45.460;9.240;2022-08-03T08:35:49;3.17;;;1.60;;
22851;SDS011;11592;45.460;9.240;2022-08-03T08:38:17;4.60;;;2.15;;
22851;SDS011;11592;45.460;9.240;2022-08-03T08:40:43;3.92;;;1.50;;
22851;SDS011;11592;45.460;9.240;2022-08-03T08:43:11;6.68;;;1.63;;
22851;SDS011;11592;45.460;9.240;2022-08-03T08:45:39;5.38;;;1.70;;
22851;SDS011;11592;45.460;9.240;2022-08-03T08:48:06;5.43;;;1.67;;
22851;SDS011;11592;45.460;9.240;2022-08-03T08:50:34;6.50;;;1.88;;
22851;SDS011;11592;45.460;9.240;2022-08-03T08:53:03;3.47;;;1.50;;
22851;SDS011;11592;45.460;9.240;2022-08-03T08:55:42;2.65;;;1.40;;
22851;SDS011;11592;45.460;9.240;2022-08-03T08:58:25;4.65;;;1.58;;
22851;SDS011;11592;45.460;9.240;2022-08-03T09:00:55;2.40;;;1.45;;
22851;SDS011;11592;45.460;9.240;2022-08-03T09:03:22;1.83;;;1.50;;
22851;SDS011;11592;45.460;9.240;2022-08-03T09:05:55;6.95;;;5.03;;
22851;SDS011;11592;45.460;9.240;2022-08-03T09:08:27;5.63;;;2.70;;
22851;SDS011;11592;45.460;9.240;2022-08-03T09:10:55;2.67;;;1.75;;
22851;SDS011;11592;45.460;9.240;2022-08-03T09:13:22;4.20;;;1.98;;
22851;SDS011;11592;45.460;9.240;2022-08-03T09:15:51;3.97;;;2.20;;
22851;SDS011;11592;45.460;9.240;2022-08-03T09:18:42;1.80;;;1.48;;
22851;SDS011;11592;45.460;9.240;2022-08-03T09:21:11;4.10;;;1.67;;
22851;SDS011;11592;45.460;9.240;2022-08-03T09:23:56;3.25;;;1.80;;
22851;SDS011;11592;45.460;9.240;2022-08-03T09:26:31;2.17;;;1.40;;
22851;SDS011;11592;45.460;9.240;2022-08-03T09:29:06;3.90;;;1.73;;
22851;SDS011;11592;45.460;9.240;2022-08-03T09:31:41;6.13;;;1.95;;
22851;SDS011;11592;45.460;9.240;2022-08-03T09:34:11;2.35;;;1.75;;
22851;SDS011;11592;45.460;9.240;2022-08-03T09:36:44;5.03;;;1.85;;
22851;SDS011;11592;45.460;9.240;2022-08-03T09:39:18;5.38;;;2.03;;
22851;SDS011;11592;45.460;9.240;2022-08-03T09:44:34;3.22;;;1.60;;
22851;SDS011;11592;45.460;9.240;2022-08-03T09:47:03;4.65;;;1.70;;
22851;SDS011;11592;45.460;9.240;2022-08-03T09:49:31;3.13;;;1.63;;
22851;SDS011;11592;45.460;9.240;2022-08-03T09:52:10;2.58;;;1.50;;
22851;SDS011;11592;45.460;9.240;2022-08-03T09:55:00;3.17;;;1.65;;
22851;SDS011;11592;45.460;9.240;2022-08-03T09:58:02;1.90;;;1.50;;
22851;SDS011;11592;45.460;9.240;2022-08-03T10:00:31;4.13;;;1.73;;
22851;SDS011;11592;45.460;9.240;2022-08-03T10:03:02;2.88;;;1.80;;
22851;SDS011;11592;45.460;9.240;2022-08-03T10:05:31;1.70;;;1.52;;
22851;SDS011;11592;45.460;9.240;2022-08-03T10:07:58;2.47;;;1.30;;
22851;SDS011;11592;45.460;9.240;2022-08-03T10:10:25;2.67;;;1.25;;
22851;SDS011;11592;45.460;9.240;2022-08-03T10:12:57;4.70;;;1.63;;
22851;SDS011;11592;45.460;9.240;2022-08-03T10:15:25;3.22;;;1.50;;
22851;SDS011;11592;45.460;9.240;2022-08-03T10:18:12;2.25;;;1.40;;
22851;SDS011;11592;45.460;9.240;2022-08-03T10:20:44;4.40;;;2.63;;
22851;SDS011;11592;45.460;9.240;2022-08-03T10:23:18;3.00;;;1.45;;
22851;SDS011;11592;45.460;9.240;2022-08-03T10:25:46;3.33;;;1.52;;
22851;SDS011;11592;45.460;9.240;2022-08-03T10:28:17;2.90;;;1.50;;
22851;SDS011;11592;45.460;9.240;2022-08-03T10:30:47;1.42;;;1.33;;
22851;SDS011;11592;45.460;9.240;2022-08-03T10:33:17;1.90;;;1.30;;
22851;SDS011;11592;45.460;9.240;2022-08-03T10:36:06;2.47;;;1.33;;
22851;SDS011;11592;45.460;9.240;2022-08-03T10:38:39;2.20;;;1.25;;
22851;SDS011;11592;45.460;9.240;2022-08-03T10:41:11;1.15;;;1.05;;
22851;SDS011;11592;45.460;9.240;2022-08-03T10:43:44;1.85;;;1.40;;
22851;SDS011;11592;45.460;9.240;2022-08-03T10:46:34;2.05;;;1.20;;
22851;SDS011;11592;45.460;9.240;2022-08-03T10:49:11;1.60;;;1.50;;
22851;SDS011;11592;45.460;9.240;2022-08-03T10:51:58;3.03;;;1.25;;
22851;SDS011;11592;45.460;9.240;2022-08-03T11:00:21;3.22;;;1.17;;
22851;SDS011;11592;45.460;9.240;2022-08-03T11:05:30;3.53;;;1.33;;
22851;SDS011;11592;45.460;9.240;2022-08-03T11:10:57;2.83;;;0.93;;
22851;SDS011;11592;45.460;9.240;2022-08-03T11:13:26;3.22;;;1.23;;
22851;SDS011;11592;45.460;9.240;2022-08-03T11:15:56;2.33;;;1.20;;
22851;SDS011;11592;45.460;9.240;2022-08-03T11:18:27;2.53;;;1.20;;
22851;SDS011;11592;45.460;9.240;2022-08-03T11:20:55;2.95;;;1.30;;
22851;SDS011;11592;45.460;9.240;2022-08-03T11:26:32;3.05;;;1.30;;
22851;SDS011;11592;45.460;9.240;2022-08-03T11:31:58;3.13;;;1.10;;
22851;SDS011;11592;45.460;9.240;2022-08-03T11:34:25;1.58;;;1.25;;
22851;SDS011;11592;45.460;9.240;2022-08-03T11:39:53;1.90;;;1.30;;
22851;SDS011;11592;45.460;9.240;2022-08-03T11:44:53;2.88;;;1.20;;
22851;SDS011;11592;45.460;9.240;2022-08-03T11:47:22;1.95;;;1.40;;
22851;SDS011;11592;45.460;9.240;2022-08-03T11:49:56;2.45;;;1.40;;
22851;SDS011;11592;45.460;9.240;2022-08-03T11:52:25;2.55;;;1.45;;
22851;SDS011;11592;45.460;9.240;2022-08-03T11:54:58;4.32;;;1.40;;
22851;SDS011;11592;45.460;9.240;2022-08-03T12:00:23;3.97;;;1.42;;
22851;SDS011;11592;45.460;9.240;2022-08-03T12:02:58;1.63;;;1.40;;
22851;SDS011;11592;45.460;9.240;2022-08-03T12:05:35;2.58;;;1.35;;
22851;SDS011;11592;45.460;9.240;2022-08-03T12:10:53;2.33;;;1.60;;
22851;SDS011;11592;45.460;9.240;2022-08-03T12:13:22;2.88;;;1.33;;
22851;SDS011;11592;45.460;9.240;2022-08-03T12:16:15;2.33;;;1.60;;
22851;SDS011;11592;45.460;9.240;2022-08-03T12:18:44;2.67;;;1.50;;
22851;SDS011;11592;45.460;9.240;2022-08-03T12:21:19;4.70;;;1.60;;
22851;SDS011;11592;45.460;9.240;2022-08-03T12:23:49;4.10;;;1.60;;
22851;SDS011;11592;45.460;9.240;2022-08-03T12:26:21;2.28;;;1.50;;
22851;SDS011;11592;45.460;9.240;2022-08-03T12:28:47;4.88;;;1.60;;
22851;SDS011;11592;45.460;9.240;2022-08-03T12:31:15;3.72;;;1.60;;
22851;SDS011;11592;45.460;9.240;2022-08-03T12:34:01;5.13;;;1.60;;
22851;SDS011;11592;45.460;9.240;2022-08-03T12:36:30;5.07;;;1.40;;
22851;SDS011;11592;45.460;9.240;2022-08-03T12:38:59;5.47;;;1.50;;
22851;SDS011;11592;45.460;9.240;2022-08-03T12:41:32;3.50;;;1.40;;
22851;SDS011;11592;45.460;9.240;2022-08-03T12:44:04;2.13;;;1.58;;
22851;SDS011;11592;45.460;9.240;2022-08-03T12:46:40;2.38;;;1.40;;
22851;SDS011;11592;45.460;9.240;2022-08-03T12:49:13;3.55;;;1.60;;
22851;SDS011;11592;45.460;9.240;2022-08-03T12:54:09;1.90;;;1.58;;
22851;SDS011;11592;45.460;9.240;2022-08-03T12:57:03;2.03;;;1.48;;
22851;SDS011;11592;45.460;9.240;2022-08-03T12:59:35;2.63;;;1.77;;
22851;SDS011;11592;45.460;9.240;2022-08-03T13:02:22;3.28;;;1.50;;
22851;SDS011;11592;45.460;9.240;2022-08-03T13:04:52;1.88;;;1.60;;
22851;SDS011;11592;45.460;9.240;2022-08-03T13:07:20;2.88;;;1.73;;
22851;SDS011;11592;45.460;9.240;2022-08-03T13:09:57;2.10;;;1.67;;
22851;SDS011;11592;45.460;9.240;2022-08-03T13:12:25;4.03;;;2.00;;
22851;SDS011;11592;45.460;9.240;2022-08-03T13:14:54;2.28;;;1.60;;
22851;SDS011;11592;45.460;9.240;2022-08-03T13:17:23;3.83;;;1.58;;
22851;SDS011;11592;45.460;9.240;2022-08-03T13:19:50;3.47;;;1.80;;
22851;SDS011;11592;45.460;9.240;2022-08-03T13:22:22;10.23;;;1.73;;
22851;SDS011;11592;45.460;9.240;2022-08-03T13:24:52;7.13;;;1.80;;
22851;SDS011;11592;45.460;9.240;2022-08-03T13:27:23;3.17;;;1.70;;
22851;SDS011;11592;45.460;9.240;2022-08-03T13:30:10;3.33;;;1.38;;
22851;SDS011;11592;45.460;9.240;2022-08-03T13:32:38;2.20;;;1.45;;
22851;SDS011;11592;45.460;9.240;2022-08-03T13:35:05;2.90;;;1.58;;
22851;SDS011;11592;45.460;9.240;2022-08-03T13:37:33;5.57;;;1.55;;
22851;SDS011;11592;45.460;9.240;2022-08-03T13:40:00;4.35;;;1.70;;
22851;SDS011;11592;45.460;9.240;2022-08-03T13:42:31;4.10;;;1.50;;
22851;SDS011;11592;45.460;9.240;2022-08-03T13:44:58;4.68;;;1.52;;
22851;SDS011;11592;45.460;9.240;2022-08-03T13:47:26;2.22;;;1.45;;
22851;SDS011;11592;45.460;9.240;2022-08-03T13:49:53;7.97;;;1.95;;
22851;SDS011;11592;45.460;9.240;2022-08-03T13:52:34;2.83;;;1.67;;
22851;SDS011;11592;45.460;9.240;2022-08-03T13:55:02;11.70;;;1.98;;
22851;SDS011;11592;45.460;9.240;2022-08-03T13:57:30;3.58;;;1.75;;
22851;SDS011;11592;45.460;9.240;2022-08-03T14:00:17;3.63;;;1.63;;
22851;SDS011;11592;45.460;9.240;2022-08-03T14:02:54;3.95;;;1.70;;
22851;SDS011;11592;45.460;9.240;2022-08-03T14:05:30;1.63;;;1.50;;
22851;SDS011;11592;45.460;9.240;2022-08-03T14:07:58;4.60;;;1.70;;
22851;SDS011;11592;45.460;9.240;2022-08-03T14:10:37;1.88;;;1.60;;
22851;SDS011;11592;45.460;9.240;2022-08-03T14:13:06;4.47;;;1.70;;
22851;SDS011;11592;45.460;9.240;2022-08-03T14:15:32;3.88;;;1.80;;
22851;SDS011;11592;45.460;9.240;2022-08-03T14:18:04;3.13;;;1.50;;
22851;SDS011;11592;45.460;9.240;2022-08-03T14:20:41;3.22;;;1.58;;
22851;SDS011;11592;45.460;9.240;2022-08-03T14:23:15;4.20;;;1.90;;
22851;SDS011;11592;45.460;9.240;2022-08-03T14:25:42;5.13;;;1.67;;
22851;SDS011;11592;45.460;9.240;2022-08-03T14:28:19;3.15;;;1.85;;
22851;SDS011;11592;45.460;9.240;2022-08-03T14:30:50;2.20;;;1.58;;
22851;SDS011;11592;45.460;9.240;2022-08-03T14:33:18;4.30;;;1.90;;
22851;SDS011;11592;45.460;9.240;2022-08-03T14:35:45;4.03;;;2.05;;
22851;SDS011;11592;45.460;9.240;2022-08-03T14:38:12;3.28;;;1.45;;
22851;SDS011;11592;45.460;9.240;2022-08-03T14:40:39;2.38;;;1.73;;
22851;SDS011;11592;45.460;9.240;2022-08-03T14:43:06;2.35;;;1.77;;
22851;SDS011;11592;45.460;9.240;2022-08-03T14:45:33;2.17;;;1.70;;
22851;SDS011;11592;45.460;9.240;2022-08-03T14:48:00;3.03;;;1.50;;
22851;SDS011;11592;45.460;9.240;2022-08-03T14:50:47;3.40;;;1.95;;
22851;SDS011;11592;45.460;9.240;2022-08-03T14:53:16;2.25;;;1.55;;
22851;SDS011;11592;45.460;9.240;2022-08-03T14:55:44;3.47;;;1.80;;
22851;SDS011;11592;45.460;9.240;2022-08-03T14:58:17;1.90;;;1.38;;
22851;SDS011;11592;45.460;9.240;2022-08-03T15:00:46;2.13;;;1.67;;
22851;SDS011;11592;45.460;9.240;2022-08-03T15:03:14;3.92;;;1.40;;
22851;SDS011;11592;45.460;9.240;2022-08-03T15:05:42;2.35;;;1.50;;
22851;SDS011;11592;45.460;9.240;2022-08-03T15:08:09;4.25;;;1.60;;
22851;SDS011;11592;45.460;9.240;2022-08-03T15:10:36;4.28;;;1.60;;
22851;SDS011;11592;45.460;9.240;2022-08-03T15:13:10;6.22;;;2.45;;
22851;SDS011;11592;45.460;9.240;2022-08-03T15:15:40;4.20;;;1.55;;
22851;SDS011;11592;45.460;9.240;2022-08-03T15:18:07;3.38;;;1.65;;
22851;SDS011;11592;45.460;9.240;2022-08-03T15:20:34;2.97;;;1.60;;
22851;SDS011;11592;45.460;9.240;2022-08-03T15:23:10;2.97;;;1.70;;
22851;SDS011;11592;45.460;9.240;2022-08-03T15:25:41;3.35;;;1.80;;
22851;SDS011;11592;45.460;9.240;2022-08-03T15:28:29;3.83;;;2.05;;
22851;SDS011;11592;45.460;9.240;2022-08-03T15:30:56;3.08;;;1.60;;
22851;SDS011;11592;45.460;9.240;2022-08-03T15:33:23;2.10;;;1.65;;
22851;SDS011;11592;45.460;9.240;2022-08-03T15:35:50;8.13;;;2.47;;
22851;SDS011;11592;45.460;9.240;2022-08-03T15:38:18;4.00;;;1.65;;
22851;SDS011;11592;45.460;9.240;2022-08-03T15:40:51;3.67;;;1.70;;
22851;SDS011;11592;45.460;9.240;2022-08-03T15:43:21;6.78;;;1.67;;
22851;SDS011;11592;45.460;9.240;2022-08-03T15:45:48;6.95;;;1.70;;
22851;SDS011;11592;45.460;9.240;2022-08-03T15:48:35;2.88;;;1.70;;
22851;SDS011;11592;45.460;9.240;2022-08-03T15:51:02;2.05;;;1.60;;
22851;SDS011;11592;45.460;9.240;2022-08-03T15:53:30;2.08;;;1.52;;
22851;SDS011;11592;45.460;9.240;2022-08-03T15:55:58;1.80;;;1.50;;
22851;SDS011;11592;45.460;9.240;2022-08-03T15:58:25;2.05;;;1.60;;
22851;SDS011;11592;45.460;9.240;2022-08-03T16:01:15;1.95;;;1.60;;
22851;SDS011;11592;45.460;9.240;2022-08-03T16:03:45;2.22;;;1.65;;
22851;SDS011;11592;45.460;9.240;2022-08-03T16:06:12;1.95;;;1.80;;